Aviation Digital Data Service (ADDS)

Output produced by METARs form (1035 UTC 22 December 2014)
found at http://aviationweather.gov/adds/metars/
 
KHPN 220831Z 2209/2306 VRB03KT P6SM OVC015 
     TEMPO 2209/2210 5SM -SNPL BR 
     FM221200 05006KT P6SM OVC010 
     FM221700 08008KT 6SM -RA OVC008 
     FM222000 08008KT 4SM -RA BR OVC005 
     FM230000 08007KT 3SM -RA BR OVC004 AMD NOT SKED